sensor_id;sensor_type;location;lat;lon;timestamp;pressure;altitude;pressure_sealevel;temperature;humidity
9439;BME280;5176;42.622;25.386;2024-01-30T00:02:25;99249.28;;;2.39;57.12
9439;BME280;5176;42.622;25.386;2024-01-30T00:04:54;99249.31;;;2.43;57.45
9439;BME280;5176;42.622;25.386;2024-01-30T00:07:22;99262.25;;;2.42;56.69
9439;BME280;5176;42.622;25.386;2024-01-30T00:09:49;99265.69;;;2.23;56.33
9439;BME280;5176;42.622;25.386;2024-01-30T00:12:17;99264.81;;;2.17;56.17
9439;BME280;5176;42.622;25.386;2024-01-30T00:14:44;99271.72;;;2.15;56.15
9439;BME280;5176;42.622;25.386;2024-01-30T00:17:11;99269.13;;;2.18;56.34
9439;BME280;5176;42.622;25.386;2024-01-30T00:19:39;99266.53;;;2.20;55.94
9439;BME280;5176;42.622;25.386;2024-01-30T00:22:08;99278.63;;;2.21;55.90
9439;BME280;5176;42.622;25.386;2024-01-30T00:24:35;99287.25;;;2.22;55.42
9439;BME280;5176;42.622;25.386;2024-01-30T00:27:03;99291.53;;;2.19;55.91
9439;BME280;5176;42.622;25.386;2024-01-30T00:29:30;99291.53;;;2.16;55.86
9439;BME280;5176;42.622;25.386;2024-01-30T00:31:59;99289.84;;;2.23;56.37
9439;BME280;5176;42.622;25.386;2024-01-30T00:34:26;99284.63;;;2.20;56.84
9439;BME280;5176;42.622;25.386;2024-01-30T00:36:54;99286.38;;;2.24;56.33
9439;BME280;5176;42.622;25.386;2024-01-30T00:39:23;99286.34;;;2.19;56.78
9439;BME280;5176;42.622;25.386;2024-01-30T00:41:50;99293.22;;;1.98;56.79
9439;BME280;5176;42.622;25.386;2024-01-30T00:44:17;99301.00;;;2.02;56.47
9439;BME280;5176;42.622;25.386;2024-01-30T00:46:45;99301.00;;;2.13;57.08
9439;BME280;5176;42.622;25.386;2024-01-30T00:49:12;99307.09;;;2.24;57.34
9439;BME280;5176;42.622;25.386;2024-01-30T00:51:40;99316.56;;;2.25;56.55
9439;BME280;5176;42.622;25.386;2024-01-30T00:54:07;99304.50;;;2.33;55.78
9439;BME280;5176;42.622;25.386;2024-01-30T00:56:36;99299.34;;;2.36;55.55
9439;BME280;5176;42.622;25.386;2024-01-30T00:59:03;99297.66;;;2.41;56.52
9439;BME280;5176;42.622;25.386;2024-01-30T01:01:31;99295.94;;;2.48;56.77
9439;BME280;5176;42.622;25.386;2024-01-30T01:03:58;99295.03;;;2.46;56.64
9439;BME280;5176;42.622;25.386;2024-01-30T01:06:26;99308.84;;;2.37;56.44
9439;BME280;5176;42.622;25.386;2024-01-30T01:08:53;99297.63;;;2.31;56.99
9439;BME280;5176;42.622;25.386;2024-01-30T01:11:20;99293.31;;;2.34;57.01
9439;BME280;5176;42.622;25.386;2024-01-30T01:13:49;99295.91;;;2.34;56.55
9439;BME280;5176;42.622;25.386;2024-01-30T01:16:17;99291.56;;;2.30;56.96
9439;BME280;5176;42.622;25.386;2024-01-30T01:18:44;99296.75;;;2.38;57.18
9439;BME280;5176;42.622;25.386;2024-01-30T01:21:12;99286.44;;;2.41;56.91
9439;BME280;5176;42.622;25.386;2024-01-30T01:23:40;99279.50;;;2.46;56.89
9439;BME280;5176;42.622;25.386;2024-01-30T01:26:08;99294.19;;;2.53;56.29
9439;BME280;5176;42.622;25.386;2024-01-30T01:28:37;99287.28;;;2.49;57.22
9439;BME280;5176;42.622;25.386;2024-01-30T01:31:08;99280.41;;;2.48;58.23
9439;BME280;5176;42.622;25.386;2024-01-30T01:33:35;99290.72;;;2.46;58.94
9439;BME280;5176;42.622;25.386;2024-01-30T01:36:04;99283.81;;;2.45;58.38
9439;BME280;5176;42.622;25.386;2024-01-30T01:38:32;99278.66;;;2.45;58.90
9439;BME280;5176;42.622;25.386;2024-01-30T01:41:00;99272.59;;;2.28;59.81
9439;BME280;5176;42.622;25.386;2024-01-30T01:43:28;99275.19;;;2.31;59.66
9439;BME280;5176;42.622;25.386;2024-01-30T01:45:56;99279.50;;;2.38;58.44
9439;BME280;5176;42.622;25.386;2024-01-30T01:48:26;99265.69;;;2.23;59.20
9439;BME280;5176;42.622;25.386;2024-01-30T01:50:54;99269.13;;;2.23;59.34
9439;BME280;5176;42.622;25.386;2024-01-30T01:53:25;99254.44;;;2.17;59.65
9439;BME280;5176;42.622;25.386;2024-01-30T01:55:54;99260.47;;;2.19;60.53
9439;BME280;5176;42.622;25.386;2024-01-30T01:58:22;99260.50;;;2.23;60.65
9439;BME280;5176;42.622;25.386;2024-01-30T02:00:56;99263.09;;;2.21;60.31
9439;BME280;5176;42.622;25.386;2024-01-30T02:03:27;99256.19;;;2.23;59.87
9439;BME280;5176;42.622;25.386;2024-01-30T02:05:55;99273.44;;;2.32;59.91
9439;BME280;5176;42.622;25.386;2024-01-30T02:08:24;99260.53;;;2.36;59.84
9439;BME280;5176;42.622;25.386;2024-01-30T02:10:52;99265.69;;;2.45;60.03
9439;BME280;5176;42.622;25.386;2024-01-30T02:13:21;99262.25;;;2.51;60.45
9439;BME280;5176;42.622;25.386;2024-01-30T02:15:49;99255.34;;;2.58;60.16
9439;BME280;5176;42.622;25.386;2024-01-30T02:18:19;99251.91;;;2.54;59.18
9439;BME280;5176;42.622;25.386;2024-01-30T02:20:48;99263.13;;;2.64;58.81
9439;BME280;5176;42.622;25.386;2024-01-30T02:23:20;99266.59;;;2.69;59.13
9439;BME280;5176;42.622;25.386;2024-01-30T02:25:48;99263.97;;;2.66;59.87
9439;BME280;5176;42.622;25.386;2024-01-30T02:28:16;99258.78;;;2.67;60.09
9439;BME280;5176;42.622;25.386;2024-01-30T02:30:44;99259.66;;;2.65;59.50
9439;BME280;5176;42.622;25.386;2024-01-30T02:33:12;99252.78;;;2.64;60.17
9439;BME280;5176;42.622;25.386;2024-01-30T02:35:40;99260.53;;;2.70;60.57
9439;BME280;5176;42.622;25.386;2024-01-30T02:38:08;99261.41;;;2.63;59.19
9439;BME280;5176;42.622;25.386;2024-01-30T02:40:38;99251.91;;;2.54;59.71
9439;BME280;5176;42.622;25.386;2024-01-30T02:43:06;99254.50;;;2.56;59.94
9439;BME280;5176;42.622;25.386;2024-01-30T02:45:34;99255.34;;;2.58;60.20
9439;BME280;5176;42.622;25.386;2024-01-30T02:48:01;99263.13;;;2.59;60.12
9439;BME280;5176;42.622;25.386;2024-01-30T02:50:29;99250.16;;;2.53;58.66
9439;BME280;5176;42.622;25.386;2024-01-30T02:52:56;99255.34;;;2.52;58.92
9439;BME280;5176;42.622;25.386;2024-01-30T02:55:24;99259.69;;;2.62;57.82
9439;BME280;5176;42.622;25.386;2024-01-30T02:57:53;99255.38;;;2.55;57.66
9439;BME280;5176;42.622;25.386;2024-01-30T03:00:21;99246.75;;;2.48;57.02
9439;BME280;5176;42.622;25.386;2024-01-30T03:02:48;99249.31;;;2.50;57.48
9439;BME280;5176;42.622;25.386;2024-01-30T03:05:16;99240.69;;;2.52;58.59
9439;BME280;5176;42.622;25.386;2024-01-30T03:07:43;99238.97;;;2.54;58.43
9439;BME280;5176;42.622;25.386;2024-01-30T03:10:11;99241.56;;;2.56;58.77
9439;BME280;5176;42.622;25.386;2024-01-30T03:12:38;99234.66;;;2.56;58.58
9439;BME280;5176;42.622;25.386;2024-01-30T03:15:08;99227.72;;;2.54;58.91
9439;BME280;5176;42.622;25.386;2024-01-30T03:17:36;99227.72;;;2.52;58.26
9439;BME280;5176;42.622;25.386;2024-01-30T03:20:05;99227.72;;;2.54;58.68
9439;BME280;5176;42.622;25.386;2024-01-30T03:22:33;99229.47;;;2.58;58.81
9439;BME280;5176;42.622;25.386;2024-01-30T03:25:00;99224.28;;;2.64;57.96
9439;BME280;5176;42.622;25.386;2024-01-30T03:27:28;99216.53;;;2.56;58.38
9439;BME280;5176;42.622;25.386;2024-01-30T03:29:56;99219.13;;;2.42;58.36
9439;BME280;5176;42.622;25.386;2024-01-30T03:32:25;99215.66;;;2.36;58.41
9439;BME280;5176;42.622;25.386;2024-01-30T03:34:52;99220.84;;;2.45;58.42
9439;BME280;5176;42.622;25.386;2024-01-30T03:37:20;99219.09;;;2.36;58.15
9439;BME280;5176;42.622;25.386;2024-01-30T03:39:47;99224.31;;;2.41;58.21
9439;BME280;5176;42.622;25.386;2024-01-30T03:42:15;99218.22;;;2.40;57.89
9439;BME280;5176;42.622;25.386;2024-01-30T03:44:43;99221.69;;;2.45;58.77
9439;BME280;5176;42.622;25.386;2024-01-30T03:47:10;99215.66;;;2.48;59.14
9439;BME280;5176;42.622;25.386;2024-01-30T03:49:40;99215.63;;;2.40;59.47
9439;BME280;5176;42.622;25.386;2024-01-30T03:52:08;99221.72;;;2.49;59.91
9439;BME280;5176;42.622;25.386;2024-01-30T03:54:35;99210.47;;;2.40;60.09
9439;BME280;5176;42.622;25.386;2024-01-30T03:57:03;99210.50;;;2.34;59.93
9439;BME280;5176;42.622;25.386;2024-01-30T03:59:31;99213.94;;;2.29;60.48
9439;BME280;5176;42.622;25.386;2024-01-30T04:01:59;99211.34;;;2.24;60.59
9439;BME280;5176;42.622;25.386;2024-01-30T04:04:27;99232.03;;;2.27;61.26
9439;BME280;5176;42.622;25.386;2024-01-30T04:06:56;99222.53;;;2.20;61.05
9439;BME280;5176;42.622;25.386;2024-01-30T04:09:23;99220.81;;;2.14;61.56
9439;BME280;5176;42.622;25.386;2024-01-30T04:11:52;99223.44;;;2.28;61.40
9439;BME280;5176;42.622;25.386;2024-01-30T04:14:20;99223.44;;;2.28;60.86
9439;BME280;5176;42.622;25.386;2024-01-30T04:16:47;99222.53;;;2.25;62.11
9439;BME280;5176;42.622;25.386;2024-01-30T04:19:15;99222.53;;;2.08;64.32
9439;BME280;5176;42.622;25.386;2024-01-30T04:21:43;99199.19;;;1.92;64.85
9439;BME280;5176;42.622;25.386;2024-01-30T04:24:12;99240.63;;;2.11;65.41
9439;BME280;5176;42.622;25.386;2024-01-30T04:26:39;99242.38;;;2.10;65.22
9439;BME280;5176;42.622;25.386;2024-01-30T04:29:07;99234.59;;;2.13;64.62
9439;BME280;5176;42.622;25.386;2024-01-30T04:31:36;99238.06;;;2.15;64.74
9439;BME280;5176;42.622;25.386;2024-01-30T04:34:02;99232.88;;;2.11;65.18
9439;BME280;5176;42.622;25.386;2024-01-30T04:36:30;99240.63;;;2.03;66.27
9439;BME280;5176;42.622;25.386;2024-01-30T04:38:57;99246.66;;;2.05;67.24
9439;BME280;5176;42.622;25.386;2024-01-30T04:41:27;99240.66;;;2.09;66.07
9439;BME280;5176;42.622;25.386;2024-01-30T04:43:57;99244.09;;;2.14;65.98
9439;BME280;5176;42.622;25.386;2024-01-30T04:46:24;99246.66;;;2.02;66.59
9439;BME280;5176;42.622;25.386;2024-01-30T04:48:52;99235.44;;;2.00;67.00
9439;BME280;5176;42.622;25.386;2024-01-30T04:51:20;99238.91;;;2.01;67.20
9439;BME280;5176;42.622;25.386;2024-01-30T04:53:47;99225.97;;;2.01;68.31
9439;BME280;5176;42.622;25.386;2024-01-30T04:56:15;99241.47;;;2.07;67.75
9439;BME280;5176;42.622;25.386;2024-01-30T04:58:44;99247.53;;;2.04;67.16
9439;BME280;5176;42.622;25.386;2024-01-30T05:01:15;99250.97;;;2.02;67.78
9439;BME280;5176;42.622;25.386;2024-01-30T05:03:43;99250.97;;;2.06;68.58
9439;BME280;5176;42.622;25.386;2024-01-30T05:06:10;99250.97;;;1.99;68.37
9439;BME280;5176;42.622;25.386;2024-01-30T05:08:38;99244.88;;;1.83;69.44
9439;BME280;5176;42.622;25.386;2024-01-30T05:11:05;99256.13;;;1.94;70.65
9439;BME280;5176;42.622;25.386;2024-01-30T05:13:33;99249.22;;;1.93;71.04
9439;BME280;5176;42.622;25.386;2024-01-30T05:16:03;99244.91;;;1.87;70.31
9439;BME280;5176;42.622;25.386;2024-01-30T05:18:31;99253.53;;;1.88;70.96
9439;BME280;5176;42.622;25.386;2024-01-30T05:20:58;99251.81;;;1.96;71.21
9439;BME280;5176;42.622;25.386;2024-01-30T05:23:26;99254.41;;;1.95;71.96
9439;BME280;5176;42.622;25.386;2024-01-30T05:25:53;99249.19;;;1.84;71.67
9439;BME280;5176;42.622;25.386;2024-01-30T05:28:20;99269.78;;;1.58;72.26
9439;BME280;5176;42.622;25.386;2024-01-30T05:30:47;99259.44;;;1.59;73.96
9439;BME280;5176;42.622;25.386;2024-01-30T05:33:16;99255.97;;;1.51;74.39
9439;BME280;5176;42.622;25.386;2024-01-30T05:35:44;99262.88;;;1.58;74.94
9439;BME280;5176;42.622;25.386;2024-01-30T05:38:11;99258.56;;;1.60;74.97
9439;BME280;5176;42.622;25.386;2024-01-30T05:40:39;99263.81;;;1.68;74.10
9439;BME280;5176;42.622;25.386;2024-01-30T05:43:07;99263.81;;;1.70;73.54
9439;BME280;5176;42.622;25.386;2024-01-30T05:45:34;99275.00;;;1.73;73.97
9439;BME280;5176;42.622;25.386;2024-01-30T05:48:02;99271.59;;;1.74;73.54
9439;BME280;5176;42.622;25.386;2024-01-30T05:50:31;99266.41;;;1.80;72.93
9439;BME280;5176;42.622;25.386;2024-01-30T05:52:58;99278.50;;;1.86;72.74
9439;BME280;5176;42.622;25.386;2024-01-30T05:55:25;99266.41;;;1.74;72.96
9439;BME280;5176;42.622;25.386;2024-01-30T05:57:53;99280.22;;;1.75;73.01
9439;BME280;5176;42.622;25.386;2024-01-30T06:00:21;99283.63;;;1.71;73.32
9439;BME280;5176;42.622;25.386;2024-01-30T06:02:48;99280.16;;;1.66;72.66
9439;BME280;5176;42.622;25.386;2024-01-30T06:05:15;99285.34;;;1.69;72.48
9439;BME280;5176;42.622;25.386;2024-01-30T06:07:44;99294.00;;;1.75;72.25
9439;BME280;5176;42.622;25.386;2024-01-30T06:10:11;99291.41;;;1.75;72.05
9439;BME280;5176;42.622;25.386;2024-01-30T06:12:39;99302.63;;;1.79;71.50
9439;BME280;5176;42.622;25.386;2024-01-30T06:15:07;99299.19;;;1.81;70.71
9439;BME280;5176;42.622;25.386;2024-01-30T06:17:35;99292.19;;;1.57;71.20
9439;BME280;5176;42.622;25.386;2024-01-30T06:20:04;99305.13;;;1.67;71.29
9439;BME280;5176;42.622;25.386;2024-01-30T06:22:32;99310.34;;;1.71;71.76
9439;BME280;5176;42.622;25.386;2024-01-30T06:25:00;99297.38;;;1.63;71.16
9439;BME280;5176;42.622;25.386;2024-01-30T06:27:28;99301.69;;;1.66;69.63
9439;BME280;5176;42.622;25.386;2024-01-30T06:29:56;99300.91;;;1.75;70.20
9439;BME280;5176;42.622;25.386;2024-01-30T06:32:23;99306.94;;;1.78;69.25
9439;BME280;5176;42.622;25.386;2024-01-30T06:34:50;99303.53;;;1.88;70.25
9439;BME280;5176;42.622;25.386;2024-01-30T06:37:18;99304.38;;;1.84;69.33
9439;BME280;5176;42.622;25.386;2024-01-30T06:39:45;99303.50;;;1.85;68.19
9439;BME280;5176;42.622;25.386;2024-01-30T06:42:14;99304.34;;;1.80;68.62
9439;BME280;5176;42.622;25.386;2024-01-30T06:44:41;99312.13;;;1.84;68.56
9439;BME280;5176;42.622;25.386;2024-01-30T06:47:09;99308.69;;;1.81;68.26
9439;BME280;5176;42.622;25.386;2024-01-30T06:49:36;99313.03;;;1.97;68.40
9439;BME280;5176;42.622;25.386;2024-01-30T06:52:05;99314.75;;;1.92;67.09
9439;BME280;5176;42.622;25.386;2024-01-30T06:54:32;99310.44;;;2.00;67.16
9439;BME280;5176;42.622;25.386;2024-01-30T06:57:00;99312.22;;;2.01;67.20
9439;BME280;5176;42.622;25.386;2024-01-30T06:59:29;99308.75;;;2.01;67.31
9439;BME280;5176;42.622;25.386;2024-01-30T07:01:56;99316.53;;;2.11;67.53
9439;BME280;5176;42.622;25.386;2024-01-30T07:04:23;99315.69;;;2.17;67.34
9439;BME280;5176;42.622;25.386;2024-01-30T07:06:51;99314.84;;;2.21;66.78
9439;BME280;5176;42.622;25.386;2024-01-30T07:09:19;99317.41;;;2.19;66.70
9439;BME280;5176;42.622;25.386;2024-01-30T07:11:46;99323.47;;;2.25;66.39
9439;BME280;5176;42.622;25.386;2024-01-30T07:14:13;99329.50;;;2.27;66.28
9439;BME280;5176;42.622;25.386;2024-01-30T07:16:42;99327.84;;;2.35;65.41
9439;BME280;5176;42.622;25.386;2024-01-30T07:19:09;99282.00;;;2.06;65.66
9439;BME280;5176;42.622;25.386;2024-01-30T07:21:37;99320.91;;;2.32;66.14
9439;BME280;5176;42.622;25.386;2024-01-30T07:24:06;99326.13;;;2.41;65.19
9439;BME280;5176;42.622;25.386;2024-01-30T07:26:34;99314.84;;;2.33;65.08
9439;BME280;5176;42.622;25.386;2024-01-30T07:29:01;99320.06;;;2.39;65.10
9439;BME280;5176;42.622;25.386;2024-01-30T07:31:29;99316.59;;;2.39;64.71
9439;BME280;5176;42.622;25.386;2024-01-30T07:33:58;99313.13;;;2.31;64.71
9439;BME280;5176;42.622;25.386;2024-01-30T07:36:25;99301.91;;;2.26;64.53
9439;BME280;5176;42.622;25.386;2024-01-30T07:38:52;99317.44;;;2.24;64.69
9439;BME280;5176;42.622;25.386;2024-01-30T07:41:20;99316.56;;;2.27;64.73
9439;BME280;5176;42.622;25.386;2024-01-30T07:43:48;99313.13;;;2.22;65.01
9439;BME280;5176;42.622;25.386;2024-01-30T07:46:15;99310.50;;;2.18;65.86
9439;BME280;5176;42.622;25.386;2024-01-30T07:48:43;99313.13;;;2.25;66.19
9439;BME280;5176;42.622;25.386;2024-01-30T07:51:12;99308.81;;;2.14;64.32
9439;BME280;5176;42.622;25.386;2024-01-30T07:53:42;99312.25;;;2.15;65.00
9439;BME280;5176;42.622;25.386;2024-01-30T07:56:10;99301.91;;;2.16;65.02
9439;BME280;5176;42.622;25.386;2024-01-30T07:58:38;99314.88;;;2.32;65.32
9439;BME280;5176;42.622;25.386;2024-01-30T08:01:05;99306.25;;;2.30;64.47
9439;BME280;5176;42.622;25.386;2024-01-30T08:03:32;99303.66;;;2.39;63.79
9439;BME280;5176;42.622;25.386;2024-01-30T08:06:00;99301.94;;;2.42;63.59
9439;BME280;5176;42.622;25.386;2024-01-30T08:08:28;99305.41;;;2.54;63.55
9439;BME280;5176;42.622;25.386;2024-01-30T08:10:56;99303.69;;;2.59;63.06
9439;BME280;5176;42.622;25.386;2024-01-30T08:13:23;99306.31;;;2.62;62.88
9439;BME280;5176;42.622;25.386;2024-01-30T08:15:51;99301.13;;;2.63;62.60
9439;BME280;5176;42.622;25.386;2024-01-30T08:18:18;99300.25;;;2.63;62.03
9439;BME280;5176;42.622;25.386;2024-01-30T08:20:46;99301.97;;;2.65;62.14
9439;BME280;5176;42.622;25.386;2024-01-30T08:23:15;99302.84;;;2.57;61.95
9439;BME280;5176;42.622;25.386;2024-01-30T08:25:44;99311.47;;;2.57;62.90
9439;BME280;5176;42.622;25.386;2024-01-30T08:28:12;99301.97;;;2.50;62.14
9439;BME280;5176;42.622;25.386;2024-01-30T08:30:39;99302.81;;;2.49;63.34
9439;BME280;5176;42.622;25.386;2024-01-30T08:33:07;99300.22;;;2.46;62.85
9439;BME280;5176;42.622;25.386;2024-01-30T08:35:34;99308.00;;;2.52;62.61
9439;BME280;5176;42.622;25.386;2024-01-30T08:38:02;99302.81;;;2.60;61.79
9439;BME280;5176;42.622;25.386;2024-01-30T08:40:29;99301.97;;;2.61;61.99
9439;BME280;5176;42.622;25.386;2024-01-30T08:42:58;99300.22;;;2.54;62.31
9439;BME280;5176;42.622;25.386;2024-01-30T08:45:26;99295.06;;;2.55;61.40
9439;BME280;5176;42.622;25.386;2024-01-30T08:47:53;99303.69;;;2.57;60.99
9439;BME280;5176;42.622;25.386;2024-01-30T08:50:20;99301.94;;;2.53;61.23
9439;BME280;5176;42.622;25.386;2024-01-30T08:52:47;99309.72;;;2.53;61.63
9439;BME280;5176;42.622;25.386;2024-01-30T08:55:15;99320.94;;;2.49;62.25
9439;BME280;5176;42.622;25.386;2024-01-30T08:57:42;99321.78;;;2.46;63.30
9439;BME280;5176;42.622;25.386;2024-01-30T09:00:13;99322.69;;;2.49;62.59
9439;BME280;5176;42.622;25.386;2024-01-30T09:02:40;99322.66;;;2.45;62.44
9439;BME280;5176;42.622;25.386;2024-01-30T09:05:08;99321.78;;;2.34;62.30
9439;BME280;5176;42.622;25.386;2024-01-30T09:07:35;99325.25;;;2.44;62.89
9439;BME280;5176;42.622;25.386;2024-01-30T09:10:03;99328.69;;;2.54;62.67
9439;BME280;5176;42.622;25.386;2024-01-30T09:12:31;99320.97;;;2.48;62.67
9439;BME280;5176;42.622;25.386;2024-01-30T09:14:58;99314.03;;;2.42;63.40
9439;BME280;5176;42.622;25.386;2024-01-30T09:17:27;99320.94;;;2.46;62.79
9439;BME280;5176;42.622;25.386;2024-01-30T09:19:55;99304.53;;;2.45;62.46
9439;BME280;5176;42.622;25.386;2024-01-30T09:22:23;99320.09;;;2.49;61.45
9439;BME280;5176;42.622;25.386;2024-01-30T09:24:50;99309.72;;;2.50;60.73
9439;BME280;5176;42.622;25.386;2024-01-30T09:27:18;99319.22;;;2.57;61.15
9439;BME280;5176;42.622;25.386;2024-01-30T09:29:45;99315.78;;;2.66;60.74
9439;BME280;5176;42.622;25.386;2024-01-30T09:32:13;99330.47;;;2.75;60.61
9439;BME280;5176;42.622;25.386;2024-01-30T09:34:42;99324.41;;;2.72;60.71
9439;BME280;5176;42.622;25.386;2024-01-30T09:37:09;99322.69;;;2.59;60.58
9439;BME280;5176;42.622;25.386;2024-01-30T09:39:36;99316.66;;;2.54;61.54
9439;BME280;5176;42.622;25.386;2024-01-30T09:42:10;99317.47;;;2.44;61.75
9439;BME280;5176;42.622;25.386;2024-01-30T09:44:43;99320.94;;;2.52;62.33
9439;BME280;5176;42.622;25.386;2024-01-30T09:47:11;99302.84;;;2.48;61.68
9439;BME280;5176;42.622;25.386;2024-01-30T09:49:39;99306.28;;;2.56;62.49
9439;BME280;5176;42.622;25.386;2024-01-30T09:52:10;99307.13;;;2.52;62.32
9439;BME280;5176;42.622;25.386;2024-01-30T09:54:38;99304.53;;;2.38;60.75
9439;BME280;5176;42.622;25.386;2024-01-30T09:57:06;99304.53;;;2.38;61.54
9439;BME280;5176;42.622;25.386;2024-01-30T09:59:33;99297.63;;;2.37;61.54
9439;BME280;5176;42.622;25.386;2024-01-30T10:02:01;99296.75;;;2.39;62.10
9439;BME280;5176;42.622;25.386;2024-01-30T10:04:29;99308.88;;;2.51;61.55
9439;BME280;5176;42.622;25.386;2024-01-30T10:06:57;99310.59;;;2.60;61.26
9439;BME280;5176;42.622;25.386;2024-01-30T10:09:27;99304.56;;;2.58;59.28
9439;BME280;5176;42.622;25.386;2024-01-30T10:11:54;99304.56;;;2.58;59.12
9439;BME280;5176;42.622;25.386;2024-01-30T10:14:22;99311.47;;;2.59;61.08
9439;BME280;5176;42.622;25.386;2024-01-30T10:16:49;99305.44;;;2.57;61.10
9439;BME280;5176;42.622;25.386;2024-01-30T10:19:16;99306.25;;;2.53;60.94
9439;BME280;5176;42.622;25.386;2024-01-30T10:21:44;99301.94;;;2.53;61.54
9439;BME280;5176;42.622;25.386;2024-01-30T10:24:13;99299.38;;;2.55;61.59
9439;BME280;5176;42.622;25.386;2024-01-30T10:26:43;99306.25;;;2.45;61.37
9439;BME280;5176;42.622;25.386;2024-01-30T10:29:10;99301.94;;;2.38;61.88
9439;BME280;5176;42.622;25.386;2024-01-30T10:31:38;99295.94;;;2.48;62.31
9439;BME280;5176;42.622;25.386;2024-01-30T10:34:05;99298.53;;;2.54;61.22
9439;BME280;5176;42.622;25.386;2024-01-30T10:36:35;99288.16;;;2.51;61.06
9439;BME280;5176;42.622;25.386;2024-01-30T10:39:06;99295.06;;;2.57;59.89
9439;BME280;5176;42.622;25.386;2024-01-30T10:41:40;99290.72;;;2.45;59.77
9439;BME280;5176;42.622;25.386;2024-01-30T10:44:11;99301.91;;;2.33;60.56
9439;BME280;5176;42.622;25.386;2024-01-30T10:46:42;99280.38;;;2.34;61.72
9439;BME280;5176;42.622;25.386;2024-01-30T10:49:12;99276.03;;;2.23;61.51
9439;BME280;5176;42.622;25.386;2024-01-30T10:51:41;99283.81;;;2.36;62.93
9439;BME280;5176;42.622;25.386;2024-01-30T10:54:09;99276.03;;;2.39;62.07
9439;BME280;5176;42.622;25.386;2024-01-30T10:56:38;99276.06;;;2.49;61.91
9439;BME280;5176;42.622;25.386;2024-01-30T10:59:07;99257.94;;;2.41;61.78
9439;BME280;5176;42.622;25.386;2024-01-30T11:01:36;99261.41;;;2.43;62.48
9439;BME280;5176;42.622;25.386;2024-01-30T11:04:04;99270.00;;;2.45;63.26
9439;BME280;5176;42.622;25.386;2024-01-30T11:06:32;99264.84;;;2.42;63.53
9439;BME280;5176;42.622;25.386;2024-01-30T11:09:03;99251.88;;;2.40;63.25
9439;BME280;5176;42.622;25.386;2024-01-30T11:11:48;99270.03;;;2.34;62.86
9439;BME280;5176;42.622;25.386;2024-01-30T11:14:15;99251.88;;;2.31;63.14
9439;BME280;5176;42.622;25.386;2024-01-30T11:16:45;99252.72;;;2.26;62.04
9439;BME280;5176;42.622;25.386;2024-01-30T11:19:14;99233.75;;;2.31;62.03
9439;BME280;5176;42.622;25.386;2024-01-30T11:21:41;99248.44;;;2.46;62.09
9439;BME280;5176;42.622;25.386;2024-01-30T11:24:09;99239.84;;;2.55;61.01
9439;BME280;5176;42.622;25.386;2024-01-30T11:26:36;99224.28;;;2.47;60.59
9439;BME280;5176;42.622;25.386;2024-01-30T11:29:07;99226.00;;;2.46;60.23
9439;BME280;5176;42.622;25.386;2024-01-30T11:31:35;99220.81;;;2.46;59.70
9439;BME280;5176;42.622;25.386;2024-01-30T11:34:04;99221.69;;;2.47;59.48
9439;BME280;5176;42.622;25.386;2024-01-30T11:36:32;99219.97;;;2.41;60.38
9439;BME280;5176;42.622;25.386;2024-01-30T11:39:03;99233.78;;;2.51;60.67
9439;BME280;5176;42.622;25.386;2024-01-30T11:41:31;99230.31;;;2.52;60.62
9439;BME280;5176;42.622;25.386;2024-01-30T11:43:59;99233.78;;;2.60;60.95
9439;BME280;5176;42.622;25.386;2024-01-30T11:46:26;99229.44;;;2.67;61.51
9439;BME280;5176;42.622;25.386;2024-01-30T11:48:54;99223.44;;;2.56;60.97
9439;BME280;5176;42.622;25.386;2024-01-30T11:51:23;99214.78;;;2.60;61.11
9439;BME280;5176;42.622;25.386;2024-01-30T11:53:50;99217.38;;;2.54;61.31
9439;BME280;5176;42.622;25.386;2024-01-30T11:56:18;99214.78;;;2.66;61.63
9439;BME280;5176;42.622;25.386;2024-01-30T11:58:45;99213.06;;;2.62;60.76
9439;BME280;5176;42.622;25.386;2024-01-30T12:01:13;99211.34;;;2.58;62.03
9439;BME280;5176;42.622;25.386;2024-01-30T12:03:41;99213.06;;;2.65;61.53
9439;BME280;5176;42.622;25.386;2024-01-30T12:06:08;99188.03;;;2.52;61.98
9439;BME280;5176;42.622;25.386;2024-01-30T12:08:37;99207.00;;;2.60;61.29
9439;BME280;5176;42.622;25.386;2024-01-30T12:11:06;99195.81;;;2.44;60.62
9439;BME280;5176;42.622;25.386;2024-01-30T12:13:37;99203.59;;;2.61;60.84
9439;BME280;5176;42.622;25.386;2024-01-30T12:16:05;99206.16;;;2.47;61.16
9439;BME280;5176;42.622;25.386;2024-01-30T12:18:33;99200.97;;;2.52;62.33
9439;BME280;5176;42.622;25.386;2024-01-30T12:21:01;99194.94;;;2.57;61.61
9439;BME280;5176;42.622;25.386;2024-01-30T12:23:28;99202.72;;;2.56;60.98
9439;BME280;5176;42.622;25.386;2024-01-30T12:25:57;99207.03;;;2.52;61.32
9439;BME280;5176;42.622;25.386;2024-01-30T12:28:25;99203.56;;;2.53;61.28
9439;BME280;5176;42.622;25.386;2024-01-30T12:30:55;99188.91;;;2.46;60.50
9439;BME280;5176;42.622;25.386;2024-01-30T12:33:26;99197.56;;;2.48;61.41
9439;BME280;5176;42.622;25.386;2024-01-30T12:35:54;99189.75;;;2.53;60.87
9439;BME280;5176;42.622;25.386;2024-01-30T12:38:21;99182.88;;;2.56;61.09
9439;BME280;5176;42.622;25.386;2024-01-30T12:40:49;99172.50;;;2.52;60.87
9439;BME280;5176;42.622;25.386;2024-01-30T12:43:18;99185.44;;;2.62;61.37
9439;BME280;5176;42.622;25.386;2024-01-30T12:45:47;99187.19;;;2.62;60.54
9439;BME280;5176;42.622;25.386;2024-01-30T12:48:14;99197.53;;;2.63;60.50
9439;BME280;5176;42.622;25.386;2024-01-30T12:50:42;99185.47;;;2.49;60.91
9439;BME280;5176;42.622;25.386;2024-01-30T12:53:09;99179.41;;;2.62;60.74
9439;BME280;5176;42.622;25.386;2024-01-30T12:55:38;99176.81;;;2.76;60.70
9439;BME280;5176;42.622;25.386;2024-01-30T12:58:05;99192.25;;;3.06;59.51
9439;BME280;5176;42.622;25.386;2024-01-30T13:00:34;99192.19;;;3.31;58.26
9439;BME280;5176;42.622;25.386;2024-01-30T13:03:02;99180.13;;;3.23;57.91
9439;BME280;5176;42.622;25.386;2024-01-30T13:05:29;99174.97;;;3.17;58.14
9439;BME280;5176;42.622;25.386;2024-01-30T13:07:57;99188.75;;;3.35;57.29
9439;BME280;5176;42.622;25.386;2024-01-30T13:10:24;99174.88;;;3.42;57.03
9439;BME280;5176;42.622;25.386;2024-01-30T13:12:51;99181.72;;;3.61;56.89
9439;BME280;5176;42.622;25.386;2024-01-30T13:15:19;99179.06;;;3.70;56.01
9439;BME280;5176;42.622;25.386;2024-01-30T13:17:50;99185.06;;;3.81;55.36
9439;BME280;5176;42.622;25.386;2024-01-30T13:20:20;99179.00;;;3.79;55.09
9439;BME280;5176;42.622;25.386;2024-01-30T13:22:47;99182.47;;;3.81;55.20
9439;BME280;5176;42.622;25.386;2024-01-30T13:25:16;99183.19;;;4.02;55.39
9439;BME280;5176;42.622;25.386;2024-01-30T13:27:43;99170.31;;;3.85;54.88